sensor_id;sensor_type;location;lat;lon;timestamp;pressure;altitude;pressure_sealevel;temperature;humidity
33422;BME280;19763;55.798;37.782;2023-01-26T00:02:04;147014.56;;;-1.27;79.18
33422;BME280;19763;55.798;37.782;2023-01-26T00:04:30;147015.88;;;-1.27;79.21
33422;BME280;19763;55.798;37.782;2023-01-26T00:06:56;147033.66;;;-1.19;78.52
33422;BME280;19763;55.798;37.782;2023-01-26T00:09:21;147019.69;;;-1.25;78.85
33422;BME280;19763;55.798;37.782;2023-01-26T00:11:47;147046.31;;;-1.14;78.06
33422;BME280;19763;55.798;37.782;2023-01-26T00:14:12;147051.44;;;-1.12;78.22
33422;BME280;19763;55.798;37.782;2023-01-26T00:16:38;147079.38;;;-1.01;78.53
33422;BME280;19763;55.798;37.782;2023-01-26T00:19:03;147092.06;;;-0.96;77.84
33422;BME280;19763;55.798;37.782;2023-01-26T00:21:29;147085.69;;;-0.98;78.08
33422;BME280;19763;55.798;37.782;2023-01-26T00:23:55;147094.59;;;-0.95;78.78
33422;BME280;19763;55.798;37.782;2023-01-26T00:26:23;147052.69;;;-1.12;78.75
33422;BME280;19763;55.798;37.782;2023-01-26T00:28:50;147076.81;;;-1.02;78.59
33422;BME280;19763;55.798;37.782;2023-01-26T00:31:18;147046.31;;;-1.14;78.37
33422;BME280;19763;55.798;37.782;2023-01-26T00:33:44;147120.00;;;-0.84;78.52
33422;BME280;19763;55.798;37.782;2023-01-26T00:36:10;147112.38;;;-0.88;77.15
33422;BME280;19763;55.798;37.782;2023-01-26T00:38:36;147099.66;;;-0.93;78.81
33422;BME280;19763;55.798;37.782;2023-01-26T00:41:02;147106.03;;;-0.90;78.27
33422;BME280;19763;55.798;37.782;2023-01-26T00:43:27;147092.06;;;-0.96;78.25
33422;BME280;19763;55.798;37.782;2023-01-26T00:45:53;147041.28;;;-1.16;78.88
33422;BME280;19763;55.798;37.782;2023-01-26T00:48:19;147061.59;;;-1.08;78.83
33422;BME280;19763;55.798;37.782;2023-01-26T00:50:44;147093.34;;;-0.95;78.29
33422;BME280;19763;55.798;37.782;2023-01-26T00:53:10;147122.56;;;-0.83;79.21
33422;BME280;19763;55.798;37.782;2023-01-26T00:55:36;147079.38;;;-1.01;77.89
33422;BME280;19763;55.798;37.782;2023-01-26T00:58:04;147080.63;;;-1.00;78.65
33422;BME280;19763;55.798;37.782;2023-01-26T01:00:31;147027.28;;;-1.22;78.88
33422;BME280;19763;55.798;37.782;2023-01-26T01:02:58;147055.22;;;-1.11;79.60
33422;BME280;19763;55.798;37.782;2023-01-26T01:05:26;147039.97;;;-1.17;80.04
33422;BME280;19763;55.798;37.782;2023-01-26T01:07:52;147060.28;;;-1.09;79.07
33422;BME280;19763;55.798;37.782;2023-01-26T01:10:18;147073.00;;;-1.03;79.18
33422;BME280;19763;55.798;37.782;2023-01-26T01:12:44;147065.41;;;-1.07;79.35
33422;BME280;19763;55.798;37.782;2023-01-26T01:15:10;147079.38;;;-1.01;80.10
33422;BME280;19763;55.798;37.782;2023-01-26T01:17:35;147071.75;;;-1.04;80.33
33422;BME280;19763;55.798;37.782;2023-01-26T01:20:03;147046.31;;;-1.14;80.34
33422;BME280;19763;55.798;37.782;2023-01-26T01:22:30;147042.50;;;-1.16;79.70
33422;BME280;19763;55.798;37.782;2023-01-26T01:24:56;147026.03;;;-1.23;79.95
33422;BME280;19763;55.798;37.782;2023-01-26T01:27:23;147039.97;;;-1.17;79.43
33422;BME280;19763;55.798;37.782;2023-01-26T01:29:50;147066.66;;;-1.06;79.82
33422;BME280;19763;55.798;37.782;2023-01-26T01:32:16;147046.31;;;-1.14;78.75
33422;BME280;19763;55.798;37.782;2023-01-26T01:34:41;147055.22;;;-1.11;79.51
33422;BME280;19763;55.798;37.782;2023-01-26T01:37:07;147036.16;;;-1.18;79.42
33422;BME280;19763;55.798;37.782;2023-01-26T01:39:33;147059.03;;;-1.09;79.23
33422;BME280;19763;55.798;37.782;2023-01-26T01:41:58;147078.06;;;-1.01;78.97
33422;BME280;19763;55.798;37.782;2023-01-26T01:44:25;147056.50;;;-1.10;79.13
33422;BME280;19763;55.798;37.782;2023-01-26T01:47:02;147031.09;;;-1.20;79.36
33422;BME280;19763;55.798;37.782;2023-01-26T01:55:07;146987.94;;;-1.38;79.91
33422;BME280;19763;55.798;37.782;2023-01-26T01:57:37;146994.25;;;-1.35;80.04
33422;BME280;19763;55.798;37.782;2023-01-26T02:00:14;147027.28;;;-1.22;80.04
33422;BME280;19763;55.798;37.782;2023-01-26T02:02:42;147022.19;;;-1.24;79.93
33422;BME280;19763;55.798;37.782;2023-01-26T02:05:23;147018.38;;;-1.26;79.10
33422;BME280;19763;55.798;37.782;2023-01-26T02:07:51;147012.06;;;-1.28;79.91
33422;BME280;19763;55.798;37.782;2023-01-26T02:10:18;147038.72;;;-1.17;80.14
33422;BME280;19763;55.798;37.782;2023-01-26T02:12:49;147045.06;;;-1.15;79.08
33422;BME280;19763;55.798;37.782;2023-01-26T02:15:17;147033.66;;;-1.19;79.42
33422;BME280;19763;55.798;37.782;2023-01-26T02:17:43;147045.06;;;-1.15;79.00
33422;BME280;19763;55.798;37.782;2023-01-26T02:25:33;147038.72;;;-1.17;79.08
33422;BME280;19763;55.798;37.782;2023-01-26T02:28:03;147061.59;;;-1.08;79.12
33422;BME280;19763;55.798;37.782;2023-01-26T02:30:29;147050.13;;;-1.13;78.51
33422;BME280;19763;55.798;37.782;2023-01-26T02:32:55;147055.22;;;-1.11;79.02
33422;BME280;19763;55.798;37.782;2023-01-26T02:35:21;146993.00;;;-1.36;79.55
33422;BME280;19763;55.798;37.782;2023-01-26T02:37:47;147047.63;;;-1.14;79.89
33422;BME280;19763;55.798;37.782;2023-01-26T02:42:45;147048.88;;;-1.13;79.30
33422;BME280;19763;55.798;37.782;2023-01-26T02:45:14;147052.69;;;-1.12;79.05
33422;BME280;19763;55.798;37.782;2023-01-26T02:47:40;147022.19;;;-1.24;79.20
33422;BME280;19763;55.798;37.782;2023-01-26T02:50:09;146993.00;;;-1.36;79.28
33422;BME280;19763;55.798;37.782;2023-01-26T02:52:35;147026.03;;;-1.23;79.59
33422;BME280;19763;55.798;37.782;2023-01-26T02:55:00;147018.38;;;-1.26;80.18
33422;BME280;19763;55.798;37.782;2023-01-26T02:57:45;147069.22;;;-1.05;80.16
33422;BME280;19763;55.798;37.782;2023-01-26T03:00:17;147014.56;;;-1.27;80.00
33422;BME280;19763;55.798;37.782;2023-01-26T03:02:43;147043.81;;;-1.15;79.59
33422;BME280;19763;55.798;37.782;2023-01-26T03:05:10;147038.72;;;-1.17;79.01
33422;BME280;19763;55.798;37.782;2023-01-26T03:07:36;147029.84;;;-1.21;79.83
33422;BME280;19763;55.798;37.782;2023-01-26T03:10:02;147034.91;;;-1.19;79.71
33422;BME280;19763;55.798;37.782;2023-01-26T03:12:28;147066.66;;;-1.06;80.14
33422;BME280;19763;55.798;37.782;2023-01-26T03:14:54;147055.22;;;-1.11;79.48
33422;BME280;19763;55.798;37.782;2023-01-26T03:17:38;147018.38;;;-1.26;79.81
33422;BME280;19763;55.798;37.782;2023-01-26T03:20:05;146947.28;;;-1.54;80.59
33422;BME280;19763;55.798;37.782;2023-01-26T03:22:49;147017.13;;;-1.26;80.85
33422;BME280;19763;55.798;37.782;2023-01-26T03:25:34;146986.63;;;-1.39;80.12
33422;BME280;19763;55.798;37.782;2023-01-26T03:28:19;146987.94;;;-1.38;80.76
33422;BME280;19763;55.798;37.782;2023-01-26T03:30:51;147018.38;;;-1.26;80.10
33422;BME280;19763;55.798;37.782;2023-01-26T03:33:17;147019.69;;;-1.25;80.95
33422;BME280;19763;55.798;37.782;2023-01-26T03:35:44;147031.09;;;-1.20;80.30
33422;BME280;19763;55.798;37.782;2023-01-26T03:38:10;147031.09;;;-1.20;79.82
33422;BME280;19763;55.798;37.782;2023-01-26T03:40:35;147023.50;;;-1.24;79.63
33422;BME280;19763;55.798;37.782;2023-01-26T03:43:30;147041.28;;;-1.16;79.90
33422;BME280;19763;55.798;37.782;2023-01-26T03:46:14;147042.50;;;-1.16;79.75
33422;BME280;19763;55.798;37.782;2023-01-26T03:48:58;147034.91;;;-1.19;79.35
33422;BME280;19763;55.798;37.782;2023-01-26T03:51:42;146986.63;;;-1.39;80.03
33422;BME280;19763;55.798;37.782;2023-01-26T03:54:26;146989.19;;;-1.37;81.01
33422;BME280;19763;55.798;37.782;2023-01-26T03:57:11;146977.78;;;-1.42;81.18
33422;BME280;19763;55.798;37.782;2023-01-26T03:59:36;146982.84;;;-1.40;79.85
33422;BME280;19763;55.798;37.782;2023-01-26T04:02:03;146998.09;;;-1.34;80.30
33422;BME280;19763;55.798;37.782;2023-01-26T04:04:48;147023.50;;;-1.24;79.82
33422;BME280;19763;55.798;37.782;2023-01-26T04:07:33;147019.69;;;-1.25;79.38
33422;BME280;19763;55.798;37.782;2023-01-26T04:10:17;147039.97;;;-1.17;79.92
33422;BME280;19763;55.798;37.782;2023-01-26T04:12:43;147033.66;;;-1.19;79.55
33422;BME280;19763;55.798;37.782;2023-01-26T04:15:08;147038.72;;;-1.17;80.36
33422;BME280;19763;55.798;37.782;2023-01-26T04:17:52;147046.31;;;-1.14;79.71
33422;BME280;19763;55.798;37.782;2023-01-26T04:20:37;147051.44;;;-1.12;79.28
33422;BME280;19763;55.798;37.782;2023-01-26T04:23:21;147050.13;;;-1.13;79.18
33422;BME280;19763;55.798;37.782;2023-01-26T04:25:47;147041.28;;;-1.16;79.39
33422;BME280;19763;55.798;37.782;2023-01-26T04:28:13;147057.78;;;-1.10;80.11
33422;BME280;19763;55.798;37.782;2023-01-26T04:30:38;147033.66;;;-1.19;79.04
33422;BME280;19763;55.798;37.782;2023-01-26T04:33:04;147033.66;;;-1.19;79.33
33422;BME280;19763;55.798;37.782;2023-01-26T04:35:30;147031.09;;;-1.20;78.94
33422;BME280;19763;55.798;37.782;2023-01-26T04:37:55;146977.78;;;-1.42;80.64
33422;BME280;19763;55.798;37.782;2023-01-26T04:40:21;147020.94;;;-1.25;79.52
33422;BME280;19763;55.798;37.782;2023-01-26T04:42:46;147020.94;;;-1.25;80.46
33422;BME280;19763;55.798;37.782;2023-01-26T04:45:12;147059.03;;;-1.09;79.13
33422;BME280;19763;55.798;37.782;2023-01-26T04:47:37;146976.47;;;-1.43;79.94
33422;BME280;19763;55.798;37.782;2023-01-26T04:50:03;147009.53;;;-1.29;79.83
33422;BME280;19763;55.798;37.782;2023-01-26T04:52:29;147012.06;;;-1.28;78.84
33422;BME280;19763;55.798;37.782;2023-01-26T04:54:54;147008.22;;;-1.30;79.58
33422;BME280;19763;55.798;37.782;2023-01-26T04:57:20;146962.50;;;-1.48;79.75
33422;BME280;19763;55.798;37.782;2023-01-26T04:59:47;147000.59;;;-1.33;79.23
33422;BME280;19763;55.798;37.782;2023-01-26T05:02:13;147047.63;;;-1.14;79.87
33422;BME280;19763;55.798;37.782;2023-01-26T05:04:38;147053.94;;;-1.11;78.94
33422;BME280;19763;55.798;37.782;2023-01-26T05:07:04;147041.28;;;-1.16;79.25
33422;BME280;19763;55.798;37.782;2023-01-26T05:09:30;147042.50;;;-1.16;78.69
33422;BME280;19763;55.798;37.782;2023-01-26T05:11:55;146979.03;;;-1.42;79.87
33422;BME280;19763;55.798;37.782;2023-01-26T05:14:41;147050.13;;;-1.13;79.62
33422;BME280;19763;55.798;37.782;2023-01-26T05:17:06;147034.91;;;-1.19;78.82
33422;BME280;19763;55.798;37.782;2023-01-26T05:19:32;147042.50;;;-1.16;79.26
33422;BME280;19763;55.798;37.782;2023-01-26T05:21:57;147014.56;;;-1.27;78.94
33422;BME280;19763;55.798;37.782;2023-01-26T05:24:23;147059.03;;;-1.09;78.67
33422;BME280;19763;55.798;37.782;2023-01-26T05:26:48;147018.38;;;-1.26;78.96
33422;BME280;19763;55.798;37.782;2023-01-26T05:29:34;147073.00;;;-1.03;78.65
33422;BME280;19763;55.798;37.782;2023-01-26T05:31:59;147053.94;;;-1.11;78.71
33422;BME280;19763;55.798;37.782;2023-01-26T05:34:26;147027.28;;;-1.22;78.23
33422;BME280;19763;55.798;37.782;2023-01-26T05:36:51;147043.81;;;-1.15;78.40
33422;BME280;19763;55.798;37.782;2023-01-26T05:39:17;147005.72;;;-1.31;78.48
33422;BME280;19763;55.798;37.782;2023-01-26T05:41:42;147039.97;;;-1.17;78.86
33422;BME280;19763;55.798;37.782;2023-01-26T05:44:08;147028.56;;;-1.22;78.90
33422;BME280;19763;55.798;37.782;2023-01-26T05:46:33;147031.09;;;-1.20;78.43
33422;BME280;19763;55.798;37.782;2023-01-26T05:48:59;147038.72;;;-1.17;78.33
33422;BME280;19763;55.798;37.782;2023-01-26T05:51:24;147065.41;;;-1.07;78.89
33422;BME280;19763;55.798;37.782;2023-01-26T05:53:50;147084.44;;;-0.99;77.74
33422;BME280;19763;55.798;37.782;2023-01-26T05:56:15;147043.81;;;-1.15;78.85
33422;BME280;19763;55.798;37.782;2023-01-26T05:58:41;147073.00;;;-1.03;78.70
33422;BME280;19763;55.798;37.782;2023-01-26T06:01:06;147073.00;;;-1.03;77.68
33422;BME280;19763;55.798;37.782;2023-01-26T06:03:32;147066.66;;;-1.06;78.35
33422;BME280;19763;55.798;37.782;2023-01-26T06:05:58;147090.78;;;-0.96;78.43
33422;BME280;19763;55.798;37.782;2023-01-26T06:08:23;147094.59;;;-0.95;78.36
33422;BME280;19763;55.798;37.782;2023-01-26T06:10:49;147059.03;;;-1.09;77.23
33422;BME280;19763;55.798;37.782;2023-01-26T06:13:15;147033.66;;;-1.19;78.06
33422;BME280;19763;55.798;37.782;2023-01-26T06:15:40;147046.31;;;-1.14;78.13
33422;BME280;19763;55.798;37.782;2023-01-26T06:18:06;147043.81;;;-1.15;77.94
33422;BME280;19763;55.798;37.782;2023-01-26T06:20:31;147074.28;;;-1.03;78.12
33422;BME280;19763;55.798;37.782;2023-01-26T06:23:00;147046.31;;;-1.14;78.17
33422;BME280;19763;55.798;37.782;2023-01-26T06:25:26;147047.63;;;-1.14;78.05
33422;BME280;19763;55.798;37.782;2023-01-26T06:27:56;147005.72;;;-1.31;77.72
33422;BME280;19763;55.798;37.782;2023-01-26T06:30:21;147065.41;;;-1.07;77.95
33422;BME280;19763;55.798;37.782;2023-01-26T06:32:47;147043.81;;;-1.15;78.44
33422;BME280;19763;55.798;37.782;2023-01-26T06:35:12;147069.22;;;-1.05;77.86
33422;BME280;19763;55.798;37.782;2023-01-26T06:37:38;147085.69;;;-0.98;77.96
33422;BME280;19763;55.798;37.782;2023-01-26T06:40:04;147084.44;;;-0.99;77.81
33422;BME280;19763;55.798;37.782;2023-01-26T06:42:30;147103.53;;;-0.91;77.92
33422;BME280;19763;55.798;37.782;2023-01-26T06:44:55;147076.81;;;-1.02;77.14
33422;BME280;19763;55.798;37.782;2023-01-26T06:47:23;147078.06;;;-1.01;77.90
33422;BME280;19763;55.798;37.782;2023-01-26T06:49:48;147107.31;;;-0.90;77.59
33422;BME280;19763;55.798;37.782;2023-01-26T06:52:30;147087.00;;;-0.98;78.02
33422;BME280;19763;55.798;37.782;2023-01-26T06:54:58;147089.53;;;-0.97;77.69
33422;BME280;19763;55.798;37.782;2023-01-26T06:57:25;147114.94;;;-0.87;78.00
33422;BME280;19763;55.798;37.782;2023-01-26T06:59:50;147102.22;;;-0.92;77.59
33422;BME280;19763;55.798;37.782;2023-01-26T07:02:18;147071.75;;;-1.04;77.39
33422;BME280;19763;55.798;37.782;2023-01-26T07:04:45;147135.28;;;-0.78;77.38
33422;BME280;19763;55.798;37.782;2023-01-26T07:07:11;147112.38;;;-0.88;77.46
33422;BME280;19763;55.798;37.782;2023-01-26T07:09:36;147141.59;;;-0.76;77.17
33422;BME280;19763;55.798;37.782;2023-01-26T07:12:02;147147.97;;;-0.73;77.84
33422;BME280;19763;55.798;37.782;2023-01-26T07:14:30;147104.78;;;-0.91;77.21
33422;BME280;19763;55.798;37.782;2023-01-26T07:16:56;147147.97;;;-0.73;78.12
33422;BME280;19763;55.798;37.782;2023-01-26T07:19:22;147174.66;;;-0.62;77.14
33422;BME280;19763;55.798;37.782;2023-01-26T07:21:47;147197.50;;;-0.53;76.71
33422;BME280;19763;55.798;37.782;2023-01-26T07:24:13;147167.03;;;-0.65;76.41
33422;BME280;19763;55.798;37.782;2023-01-26T07:26:39;147121.31;;;-0.84;76.70
33422;BME280;19763;55.798;37.782;2023-01-26T07:29:04;147139.09;;;-0.77;77.38
33422;BME280;19763;55.798;37.782;2023-01-26T07:31:30;147141.59;;;-0.76;77.12
33422;BME280;19763;55.798;37.782;2023-01-26T07:33:55;147123.81;;;-0.83;78.10
33422;BME280;19763;55.798;37.782;2023-01-26T07:36:21;147146.69;;;-0.74;77.45
33422;BME280;19763;55.798;37.782;2023-01-26T07:38:47;147170.84;;;-0.64;77.96
33422;BME280;19763;55.798;37.782;2023-01-26T07:41:12;147193.69;;;-0.55;77.62
33422;BME280;19763;55.798;37.782;2023-01-26T07:43:38;147170.84;;;-0.64;77.53
33422;BME280;19763;55.798;37.782;2023-01-26T07:46:04;147201.31;;;-0.52;77.32
33422;BME280;19763;55.798;37.782;2023-01-26T07:48:30;147191.13;;;-0.56;76.82
33422;BME280;19763;55.798;37.782;2023-01-26T07:51:01;147154.31;;;-0.71;76.91
33422;BME280;19763;55.798;37.782;2023-01-26T07:53:28;147126.38;;;-0.82;77.34
33422;BME280;19763;55.798;37.782;2023-01-26T07:56:15;147160.69;;;-0.68;77.57
33422;BME280;19763;55.798;37.782;2023-01-26T07:58:41;147182.28;;;-0.59;77.19
33422;BME280;19763;55.798;37.782;2023-01-26T08:01:08;147181.03;;;-0.60;76.80
33422;BME280;19763;55.798;37.782;2023-01-26T08:03:34;147170.84;;;-0.64;76.12
33422;BME280;19763;55.798;37.782;2023-01-26T08:06:00;147228.03;;;-0.41;76.80
33422;BME280;19763;55.798;37.782;2023-01-26T08:08:26;147208.97;;;-0.48;77.16
33422;BME280;19763;55.798;37.782;2023-01-26T08:10:55;147159.38;;;-0.68;76.95
33422;BME280;19763;55.798;37.782;2023-01-26T08:13:21;147099.66;;;-0.93;77.95
33422;BME280;19763;55.798;37.782;2023-01-26T08:15:47;147186.09;;;-0.58;77.73
33422;BME280;19763;55.798;37.782;2023-01-26T08:18:12;147215.28;;;-0.46;76.68
33422;BME280;19763;55.798;37.782;2023-01-26T08:20:38;147196.25;;;-0.54;77.25
33422;BME280;19763;55.798;37.782;2023-01-26T08:23:03;147202.63;;;-0.51;77.55
33422;BME280;19763;55.798;37.782;2023-01-26T08:25:29;147220.41;;;-0.44;77.06
33422;BME280;19763;55.798;37.782;2023-01-26T08:27:57;147245.81;;;-0.33;77.05
33422;BME280;19763;55.798;37.782;2023-01-26T08:30:22;147267.41;;;-0.25;76.24
33422;BME280;19763;55.798;37.782;2023-01-26T08:32:48;147206.44;;;-0.49;76.62
33422;BME280;19763;55.798;37.782;2023-01-26T08:35:13;147219.09;;;-0.44;77.33
33422;BME280;19763;55.798;37.782;2023-01-26T08:37:39;147259.78;;;-0.28;76.70
33422;BME280;19763;55.798;37.782;2023-01-26T08:40:05;147206.44;;;-0.49;76.33
33422;BME280;19763;55.798;37.782;2023-01-26T08:42:31;147203.88;;;-0.50;76.99
33422;BME280;19763;55.798;37.782;2023-01-26T08:44:56;147254.72;;;-0.30;76.52
33422;BME280;19763;55.798;37.782;2023-01-26T08:47:22;147263.59;;;-0.26;76.14
33422;BME280;19763;55.798;37.782;2023-01-26T08:49:48;147269.97;;;-0.24;76.74
33422;BME280;19763;55.798;37.782;2023-01-26T08:52:13;147263.59;;;-0.26;76.68
33422;BME280;19763;55.798;37.782;2023-01-26T08:54:39;147264.84;;;-0.26;76.68
33422;BME280;19763;55.798;37.782;2023-01-26T08:57:04;147269.97;;;-0.24;75.91
33422;BME280;19763;55.798;37.782;2023-01-26T08:59:30;147236.88;;;-0.37;76.45
33422;BME280;19763;55.798;37.782;2023-01-26T09:01:56;147276.34;;;-0.21;77.07
33422;BME280;19763;55.798;37.782;2023-01-26T09:04:21;147278.84;;;-0.20;77.56
33422;BME280;19763;55.798;37.782;2023-01-26T09:06:47;147289.00;;;-0.16;76.50
33422;BME280;19763;55.798;37.782;2023-01-26T09:09:12;147272.53;;;-0.23;76.26
33422;BME280;19763;55.798;37.782;2023-01-26T09:11:40;147248.38;;;-0.32;76.64
33422;BME280;19763;55.798;37.782;2023-01-26T09:14:06;147291.56;;;-0.15;77.05
33422;BME280;19763;55.798;37.782;2023-01-26T09:16:31;147253.44;;;-0.30;76.78
33422;BME280;19763;55.798;37.782;2023-01-26T09:18:57;147299.19;;;-0.12;76.81
33422;BME280;19763;55.798;37.782;2023-01-26T09:21:23;147310.63;;;-0.07;76.69
33422;BME280;19763;55.798;37.782;2023-01-26T09:23:49;147300.50;;;-0.11;76.63
33422;BME280;19763;55.798;37.782;2023-01-26T09:26:14;147291.56;;;-0.15;76.41
33422;BME280;19763;55.798;37.782;2023-01-26T09:28:40;147318.28;;;-0.04;76.04
33422;BME280;19763;55.798;37.782;2023-01-26T09:31:08;147318.28;;;-0.04;76.55
33422;BME280;19763;55.798;37.782;2023-01-26T09:33:37;147263.59;;;-0.26;76.96
33422;BME280;19763;55.798;37.782;2023-01-26T09:36:07;147282.66;;;-0.19;76.78
33422;BME280;19763;55.798;37.782;2023-01-26T09:38:34;147323.34;;;-0.02;76.28
33422;BME280;19763;55.798;37.782;2023-01-26T09:43:44;147278.84;;;-0.20;76.77
33422;BME280;19763;55.798;37.782;2023-01-26T09:55:20;147322.09;;;-0.03;76.46
33422;BME280;19763;55.798;37.782;2023-01-26T09:57:49;147300.50;;;-0.11;76.65
33422;BME280;19763;55.798;37.782;2023-01-26T10:00:39;147318.28;;;-0.04;75.99
33422;BME280;19763;55.798;37.782;2023-01-26T10:08:31;147339.88;;;0.05;76.13
33422;BME280;19763;55.798;37.782;2023-01-26T10:11:06;147339.88;;;0.05;76.00
33422;BME280;19763;55.798;37.782;2023-01-26T10:13:36;147282.66;;;-0.19;77.07
33422;BME280;19763;55.798;37.782;2023-01-26T10:16:06;147306.81;;;-0.09;76.83
33422;BME280;19763;55.798;37.782;2023-01-26T10:19:03;147303.00;;;-0.10;76.35
33422;BME280;19763;55.798;37.782;2023-01-26T10:21:37;147283.94;;;-0.18;76.83
33422;BME280;19763;55.798;37.782;2023-01-26T10:24:08;147262.34;;;-0.27;77.22
33422;BME280;19763;55.798;37.782;2023-01-26T10:26:35;147348.75;;;0.08;76.97
33422;BME280;19763;55.798;37.782;2023-01-26T10:29:02;147333.53;;;0.02;76.52
33422;BME280;19763;55.798;37.782;2023-01-26T10:31:31;147308.09;;;-0.08;76.93
33422;BME280;19763;55.798;37.782;2023-01-26T10:33:59;147329.72;;;0.01;76.18
33422;BME280;19763;55.798;37.782;2023-01-26T10:36:30;147327.16;;;-0.01;76.20
33422;BME280;19763;55.798;37.782;2023-01-26T10:39:06;147306.81;;;-0.09;76.71
33422;BME280;19763;55.798;37.782;2023-01-26T10:41:32;147366.56;;;0.15;77.11
33422;BME280;19763;55.798;37.782;2023-01-26T10:46:45;147350.06;;;0.09;76.37
33422;BME280;19763;55.798;37.782;2023-01-26T10:51:38;147304.31;;;-0.10;77.33
33422;BME280;19763;55.798;37.782;2023-01-26T10:56:46;147325.91;;;-0.01;77.14
33422;BME280;19763;55.798;37.782;2023-01-26T10:59:19;147339.88;;;0.05;76.73
33422;BME280;19763;55.798;37.782;2023-01-26T11:02:07;147365.31;;;0.15;76.97
33422;BME280;19763;55.798;37.782;2023-01-26T11:07:36;147408.53;;;0.32;76.08
33422;BME280;19763;55.798;37.782;2023-01-26T11:12:44;147421.25;;;0.38;76.10
33422;BME280;19763;55.798;37.782;2023-01-26T11:20:43;147394.53;;;0.27;77.86
33422;BME280;19763;55.798;37.782;2023-01-26T11:31:58;147374.22;;;0.19;78.99
33422;BME280;19763;55.798;37.782;2023-01-26T11:43:02;147338.59;;;0.04;80.06
33422;BME280;19763;55.798;37.782;2023-01-26T11:48:16;147361.50;;;0.13;80.30
33422;BME280;19763;55.798;37.782;2023-01-26T11:50:54;147369.13;;;0.16;80.08
33422;BME280;19763;55.798;37.782;2023-01-26T11:58:47;147351.31;;;0.09;81.08
33422;BME280;19763;55.798;37.782;2023-01-26T12:01:23;147329.72;;;0.01;81.61
33422;BME280;19763;55.798;37.782;2023-01-26T12:03:54;147341.16;;;0.05;81.40
33422;BME280;19763;55.798;37.782;2023-01-26T12:09:50;147324.59;;;-0.02;80.74
33422;BME280;19763;55.798;37.782;2023-01-26T12:12:04;147369.13;;;0.16;80.63
33422;BME280;19763;55.798;37.782;2023-01-26T12:14:56;147334.78;;;0.03;80.25
33422;BME280;19763;55.798;37.782;2023-01-26T12:25:54;147360.25;;;0.13;80.41
33422;BME280;19763;55.798;37.782;2023-01-26T12:28:25;147371.69;;;0.17;79.93
33422;BME280;19763;55.798;37.782;2023-01-26T12:33:31;147400.91;;;0.29;80.05
33422;BME280;19763;55.798;37.782;2023-01-26T12:39:12;147341.16;;;0.05;79.83
33422;BME280;19763;55.798;37.782;2023-01-26T12:42:12;147316.97;;;-0.05;80.66
33422;BME280;19763;55.798;37.782;2023-01-26T12:44:54;147296.63;;;-0.13;80.20
33422;BME280;19763;55.798;37.782;2023-01-26T12:47:40;147327.16;;;-0.01;80.55
33422;BME280;19763;55.798;37.782;2023-01-26T12:55:57;147375.47;;;0.19;80.59
33422;BME280;19763;55.798;37.782;2023-01-26T12:58:34;147330.97;;;0.01;80.36
33422;BME280;19763;55.798;37.782;2023-01-26T13:01:14;147320.78;;;-0.03;80.55
33422;BME280;19763;55.798;37.782;2023-01-26T13:03:44;147323.34;;;-0.02;80.18
33422;BME280;19763;55.798;37.782;2023-01-26T13:16:48;147344.97;;;0.07;80.12
33422;BME280;19763;55.798;37.782;2023-01-26T13:19:49;147336.06;;;0.03;80.16
33422;BME280;19763;55.798;37.782;2023-01-26T13:24:58;147362.75;;;0.14;78.64
33422;BME280;19763;55.798;37.782;2023-01-26T13:33:16;147362.75;;;0.14;78.45
33422;BME280;19763;55.798;37.782;2023-01-26T13:35:45;147400.91;;;0.29;78.96
33422;BME280;19763;55.798;37.782;2023-01-26T13:40:53;147380.56;;;0.21;78.44
33422;BME280;19763;55.798;37.782;2023-01-26T13:43:45;147407.28;;;0.32;78.18
33422;BME280;19763;55.798;37.782;2023-01-26T13:46:33;147400.91;;;0.29;78.59
33422;BME280;19763;55.798;37.782;2023-01-26T13:49:00;147412.34;;;0.34;78.35
33422;BME280;19763;55.798;37.782;2023-01-26T13:51:33;147334.78;;;0.03;78.99
33422;BME280;19763;55.798;37.782;2023-01-26T13:54:13;147334.78;;;0.03;79.24
33422;BME280;19763;55.798;37.782;2023-01-26T13:56:41;147336.06;;;0.03;78.82
33422;BME280;19763;55.798;37.782;2023-01-26T13:59:14;147386.91;;;0.24;78.92
33422;BME280;19763;55.798;37.782;2023-01-26T14:01:48;147343.69;;;0.06;78.55
33422;BME280;19763;55.798;37.782;2023-01-26T14:09:21;147392.03;;;0.26;78.16
33422;BME280;19763;55.798;37.782;2023-01-26T14:11:55;147414.91;;;0.35;79.17
33422;BME280;19763;55.798;37.782;2023-01-26T14:14:28;147374.22;;;0.19;78.54
33422;BME280;19763;55.798;37.782;2023-01-26T14:16:57;147346.25;;;0.07;79.08
33422;BME280;19763;55.798;37.782;2023-01-26T14:19:24;147371.69;;;0.17;78.96
33422;BME280;19763;55.798;37.782;2023-01-26T14:21:58;147399.66;;;0.29;78.54
33422;BME280;19763;55.798;37.782;2023-01-26T14:24:34;147437.81;;;0.44;79.03
33422;BME280;19763;55.798;37.782;2023-01-26T14:27:04;147433.94;;;0.43;78.85
33422;BME280;19763;55.798;37.782;2023-01-26T14:29:36;147421.25;;;0.38;78.36
33422;BME280;19763;55.798;37.782;2023-01-26T14:32:03;147430.16;;;0.41;78.45
33422;BME280;19763;55.798;37.782;2023-01-26T14:34:30;147411.09;;;0.33;78.60
33422;BME280;19763;55.798;37.782;2023-01-26T14:37:13;147403.47;;;0.30;78.42
33422;BME280;19763;55.798;37.782;2023-01-26T14:39:40;147439.06;;;0.45;78.41
33422;BME280;19763;55.798;37.782;2023-01-26T14:42:13;147390.72;;;0.25;78.36
33422;BME280;19763;55.798;37.782;2023-01-26T14:44:39;147394.53;;;0.27;79.21
33422;BME280;19763;55.798;37.782;2023-01-26T14:47:14;147385.66;;;0.23;79.28
33422;BME280;19763;55.798;37.782;2023-01-26T14:50:03;147408.53;;;0.32;78.92
33422;BME280;19763;55.798;37.782;2023-01-26T14:52:36;147456.88;;;0.52;78.92
33422;BME280;19763;55.798;37.782;2023-01-26T14:57:36;147386.91;;;0.24;79.65
33422;BME280;19763;55.798;37.782;2023-01-26T15:00:04;147381.84;;;0.22;79.64
33422;BME280;19763;55.798;37.782;2023-01-26T15:02:36;147347.50;;;0.08;80.47